AUA61HK LOWW-LDSP
Flight info
| Callsign | AUA61HK |
|---|---|
| Flight time | 0h 49m |
| Altitude | 34000 |
| Route | STEIN3C STEIN DCT NOHAT DCT NEKIN DCT NIVES/N0428F330 DCT NUPSO NUPSO1A |
| Aircraft | A321/M-SDE2E3FGIJ1RWXY/LB1 |
Departure
| Time | 2026-04-24 14:26 |
|---|---|
| Airport | Vienna International Airport (LOWW) |
Arrival
| Time | 2026-04-24 15:15 |
|---|---|
| Airport | Split Saint Jerome Airport (LDSP) |
| Time | Latitude | Longitude | Altitude | Speed | Heading |
|---|---|---|---|---|---|
| 2026-04-24 14:01 | 48.11848 | 16.56934 | 625 ft | 0 kts | 206° |
| 2026-04-24 14:19 | 48.11865 | 16.56947 | 632 ft | 4 kts | 206° |
| 2026-04-24 14:19 | 48.11885 | 16.56961 | 625 ft | 4 kts | 202° |
| 2026-04-24 14:19 | 48.11907 | 16.56964 | 624 ft | 4 kts | 148° |
| 2026-04-24 14:20 | 48.11922 | 16.56938 | 624 ft | 2 kts | 116° |
| 2026-04-24 14:20 | 48.11923 | 16.56935 | 623 ft | 0 kts | 116° |
| 2026-04-24 14:21 | 48.11916 | 16.56956 | 629 ft | 5 kts | 116° |
| 2026-04-24 14:22 | 48.11894 | 16.57022 | 623 ft | 9 kts | 116° |
| 2026-04-24 14:22 | 48.11860 | 16.57133 | 622 ft | 14 kts | 100° |
| 2026-04-24 14:22 | 48.11810 | 16.57434 | 622 ft | 15 kts | 106° |
| 2026-04-24 14:23 | 48.11712 | 16.57511 | 621 ft | 18 kts | 164° |
| 2026-04-24 14:23 | 48.11579 | 16.57568 | 621 ft | 21 kts | 164° |
| 2026-04-24 14:23 | 48.11429 | 16.57631 | 621 ft | 24 kts | 164° |
| 2026-04-24 14:23 | 48.11261 | 16.57681 | 619 ft | 26 kts | 200° |
| 2026-04-24 14:24 | 48.11143 | 16.57599 | 620 ft | 18 kts | 187° |
| 2026-04-24 14:24 | 48.11057 | 16.57649 | 623 ft | 14 kts | 182° |
| 2026-04-24 14:24 | 48.10991 | 16.57609 | 615 ft | 11 kts | 204° |
| 2026-04-24 14:24 | 48.10917 | 16.57552 | 621 ft | 10 kts | 239° |
| 2026-04-24 14:25 | 48.10945 | 16.57439 | 625 ft | 16 kts | 296° |
| 2026-04-24 14:25 | 48.11106 | 16.56948 | 627 ft | 90 kts | 295° |
| 2026-04-24 14:25 | 48.11477 | 16.55806 | 618 ft | 152 kts | 295° |
| 2026-04-24 14:25 | 48.11961 | 16.54308 | 1179 ft | 159 kts | 292° |
| 2026-04-24 14:26 | 48.12062 | 16.52644 | 1886 ft | 172 kts | 258° |
| 2026-04-24 14:26 | 48.11266 | 16.51163 | 2176 ft | 199 kts | 227° |
| 2026-04-24 14:26 | 48.10121 | 16.49818 | 2560 ft | 218 kts | 220° |
| 2026-04-24 14:26 | 48.08818 | 16.48421 | 2907 ft | 241 kts | 218° |
| 2026-04-24 14:27 | 48.07211 | 16.47381 | 3390 ft | 265 kts | 192° |
| 2026-04-24 14:27 | 48.05325 | 16.47391 | 4093 ft | 275 kts | 175° |
| 2026-04-24 14:27 | 48.03418 | 16.47804 | 4913 ft | 279 kts | 174° |
| 2026-04-24 14:27 | 48.01483 | 16.48231 | 5658 ft | 287 kts | 174° |
| 2026-04-24 14:28 | 47.99458 | 16.48642 | 6019 ft | 308 kts | 175° |
| 2026-04-24 14:28 | 47.97261 | 16.49079 | 6329 ft | 329 kts | 174° |
| 2026-04-24 14:28 | 47.94925 | 16.49547 | 6604 ft | 349 kts | 174° |
| 2026-04-24 14:28 | 47.92452 | 16.50044 | 6865 ft | 368 kts | 174° |
| 2026-04-24 14:29 | 47.89852 | 16.50565 | 7121 ft | 385 kts | 174° |
| 2026-04-24 14:29 | 47.87165 | 16.51106 | 7597 ft | 393 kts | 174° |
| 2026-04-24 14:29 | 47.84434 | 16.51652 | 8191 ft | 398 kts | 174° |
| 2026-04-24 14:29 | 47.81676 | 16.52203 | 8836 ft | 401 kts | 174° |
| 2026-04-24 14:30 | 47.78895 | 16.52759 | 9443 ft | 405 kts | 174° |
| 2026-04-24 14:30 | 47.76084 | 16.53319 | 10020 ft | 410 kts | 174° |
| 2026-04-24 14:30 | 47.73252 | 16.53891 | 10544 ft | 414 kts | 174° |
| 2026-04-24 14:30 | 47.70385 | 16.54463 | 11101 ft | 416 kts | 174° |
| 2026-04-24 14:31 | 47.67498 | 16.55038 | 11612 ft | 420 kts | 173° |
| 2026-04-24 14:31 | 47.64584 | 16.55616 | 12155 ft | 423 kts | 173° |
| 2026-04-24 14:31 | 47.61652 | 16.56198 | 12674 ft | 426 kts | 173° |
| 2026-04-24 14:31 | 47.58685 | 16.56701 | 13176 ft | 430 kts | 176° |
| 2026-04-24 14:32 | 47.55688 | 16.57049 | 13642 ft | 435 kts | 176° |
| 2026-04-24 14:32 | 47.52658 | 16.57380 | 14092 ft | 438 kts | 176° |
| 2026-04-24 14:32 | 47.49609 | 16.57724 | 14550 ft | 441 kts | 176° |
| 2026-04-24 14:32 | 47.46539 | 16.58080 | 15010 ft | 444 kts | 176° |
| 2026-04-24 14:33 | 47.43444 | 16.58443 | 15444 ft | 447 kts | 176° |
| 2026-04-24 14:33 | 47.40332 | 16.58806 | 15884 ft | 450 kts | 176° |
| 2026-04-24 14:33 | 47.37247 | 16.59166 | 16354 ft | 452 kts | 176° |
| 2026-04-24 14:33 | 47.34096 | 16.59535 | 16784 ft | 454 kts | 176° |
| 2026-04-24 14:34 | 47.30940 | 16.59906 | 17220 ft | 457 kts | 176° |
| 2026-04-24 14:34 | 47.27761 | 16.60280 | 17652 ft | 459 kts | 176° |
| 2026-04-24 14:34 | 47.24564 | 16.60654 | 18085 ft | 462 kts | 176° |
| 2026-04-24 14:34 | 47.21358 | 16.61027 | 18479 ft | 464 kts | 176° |
| 2026-04-24 14:35 | 47.18133 | 16.61407 | 18847 ft | 466 kts | 175° |
| 2026-04-24 14:35 | 47.14896 | 16.61789 | 19223 ft | 467 kts | 175° |
| 2026-04-24 14:35 | 47.11652 | 16.62166 | 19594 ft | 469 kts | 175° |
| 2026-04-24 14:35 | 47.08384 | 16.62544 | 19961 ft | 471 kts | 175° |
| 2026-04-24 14:36 | 47.05106 | 16.62925 | 20314 ft | 473 kts | 175° |
| 2026-04-24 14:36 | 47.01825 | 16.63306 | 20677 ft | 475 kts | 175° |
| 2026-04-24 14:36 | 46.98564 | 16.63684 | 21006 ft | 477 kts | 175° |
| 2026-04-24 14:36 | 46.95250 | 16.64070 | 21319 ft | 479 kts | 175° |
| 2026-04-24 14:37 | 46.91914 | 16.64459 | 21657 ft | 481 kts | 175° |
| 2026-04-24 14:37 | 46.88566 | 16.64853 | 21990 ft | 483 kts | 175° |
| 2026-04-24 14:37 | 46.85205 | 16.65246 | 22313 ft | 485 kts | 175° |
| 2026-04-24 14:37 | 46.81834 | 16.65633 | 22627 ft | 487 kts | 175° |
| 2026-04-24 14:38 | 46.78454 | 16.66020 | 22927 ft | 489 kts | 175° |
| 2026-04-24 14:38 | 46.75050 | 16.66413 | 23238 ft | 490 kts | 175° |
| 2026-04-24 14:38 | 46.71643 | 16.66799 | 23543 ft | 492 kts | 175° |
| 2026-04-24 14:38 | 46.68218 | 16.67189 | 23791 ft | 494 kts | 175° |
| 2026-04-24 14:39 | 46.64790 | 16.67578 | 24041 ft | 495 kts | 175° |
| 2026-04-24 14:39 | 46.61356 | 16.67970 | 24359 ft | 494 kts | 175° |
| 2026-04-24 14:39 | 46.57933 | 16.68364 | 24674 ft | 493 kts | 175° |
| 2026-04-24 14:39 | 46.54556 | 16.68744 | 25005 ft | 492 kts | 175° |
| 2026-04-24 14:40 | 46.51152 | 16.69126 | 25355 ft | 490 kts | 175° |
| 2026-04-24 14:40 | 46.47754 | 16.69511 | 25683 ft | 490 kts | 174° |
| 2026-04-24 14:40 | 46.44359 | 16.69857 | 25997 ft | 489 kts | 177° |
| 2026-04-24 14:40 | 46.40963 | 16.69569 | 26300 ft | 490 kts | 188° |
| 2026-04-24 14:41 | 46.37678 | 16.68255 | 26579 ft | 491 kts | 201° |
| 2026-04-24 14:41 | 46.34569 | 16.66215 | 26890 ft | 490 kts | 206° |
| 2026-04-24 14:41 | 46.31495 | 16.64059 | 27210 ft | 490 kts | 206° |
| 2026-04-24 14:41 | 46.28433 | 16.61913 | 27524 ft | 489 kts | 206° |
| 2026-04-24 14:42 | 46.25357 | 16.59788 | 27837 ft | 489 kts | 205° |
| 2026-04-24 14:42 | 46.22283 | 16.57684 | 28162 ft | 488 kts | 205° |
| 2026-04-24 14:42 | 46.19209 | 16.55582 | 28479 ft | 488 kts | 205° |
| 2026-04-24 14:42 | 46.16148 | 16.53491 | 28801 ft | 487 kts | 205° |
| 2026-04-24 14:43 | 46.13083 | 16.51403 | 29114 ft | 487 kts | 205° |
| 2026-04-24 14:43 | 46.10021 | 16.49335 | 29447 ft | 486 kts | 205° |
| 2026-04-24 14:43 | 46.06959 | 16.47267 | 29764 ft | 486 kts | 205° |
| 2026-04-24 14:43 | 46.03903 | 16.45193 | 30032 ft | 487 kts | 205° |
| 2026-04-24 14:44 | 46.00832 | 16.43094 | 30083 ft | 491 kts | 205° |
| 2026-04-24 14:44 | 45.94698 | 16.38939 | 30055 ft | 490 kts | 205° |
| 2026-04-24 14:45 | 45.88515 | 16.34778 | 30046 ft | 491 kts | 205° |
| 2026-04-24 14:45 | 45.82341 | 16.30609 | 30048 ft | 490 kts | 205° |
| 2026-04-24 14:46 | 45.76167 | 16.26453 | 30049 ft | 490 kts | 204° |
| 2026-04-24 14:46 | 45.69987 | 16.22314 | 30040 ft | 490 kts | 204° |
| 2026-04-24 14:47 | 45.63819 | 16.18194 | 30040 ft | 490 kts | 204° |
| 2026-04-24 14:47 | 45.57640 | 16.14074 | 30040 ft | 490 kts | 204° |
| 2026-04-24 14:48 | 45.51455 | 16.09961 | 30034 ft | 490 kts | 204° |
| 2026-04-24 14:48 | 45.45270 | 16.05852 | 30036 ft | 490 kts | 204° |
| 2026-04-24 14:49 | 45.39089 | 16.01757 | 30037 ft | 489 kts | 204° |
| 2026-04-24 14:49 | 45.32920 | 15.97685 | 30035 ft | 489 kts | 204° |
| 2026-04-24 14:50 | 45.26776 | 15.93641 | 30036 ft | 489 kts | 204° |
| 2026-04-24 14:50 | 45.20339 | 15.90677 | 30033 ft | 485 kts | 185° |
| 2026-04-24 14:51 | 45.13612 | 15.90214 | 30039 ft | 483 kts | 179° |
| 2026-04-24 14:51 | 45.06887 | 15.89927 | 30037 ft | 483 kts | 180° |
| 2026-04-24 14:52 | 45.00157 | 15.89584 | 30045 ft | 484 kts | 180° |
| 2026-04-24 14:52 | 44.93422 | 15.89239 | 30045 ft | 484 kts | 180° |
| 2026-04-24 14:53 | 44.86732 | 15.88900 | 30043 ft | 484 kts | 180° |
| 2026-04-24 14:53 | 44.80013 | 15.88553 | 30040 ft | 482 kts | 180° |
| 2026-04-24 14:54 | 44.73302 | 15.88213 | 30051 ft | 483 kts | 180° |
| 2026-04-24 14:54 | 44.66583 | 15.87875 | 30048 ft | 483 kts | 180° |
| 2026-04-24 14:55 | 44.61009 | 15.87596 | 30047 ft | 482 kts | 179° |
| 2026-04-24 14:55 | 44.53171 | 15.87197 | 30044 ft | 482 kts | 179° |
| 2026-04-24 14:56 | 44.46497 | 15.86858 | 30051 ft | 482 kts | 179° |
| 2026-04-24 14:56 | 44.39797 | 15.86523 | 30050 ft | 481 kts | 179° |
| 2026-04-24 14:57 | 44.33096 | 15.86188 | 29454 ft | 481 kts | 179° |
| 2026-04-24 14:57 | 44.29752 | 15.86022 | 28782 ft | 482 kts | 179° |
| 2026-04-24 14:57 | 44.26391 | 15.85855 | 28078 ft | 484 kts | 179° |
| 2026-04-24 14:57 | 44.23025 | 15.85688 | 27370 ft | 485 kts | 179° |
| 2026-04-24 14:58 | 44.19639 | 15.85519 | 26684 ft | 487 kts | 180° |
| 2026-04-24 14:58 | 44.16246 | 15.85347 | 26010 ft | 489 kts | 180° |
| 2026-04-24 14:58 | 44.12834 | 15.85275 | 25349 ft | 491 kts | 175° |
| 2026-04-24 14:58 | 44.09412 | 15.85549 | 24704 ft | 492 kts | 174° |
| 2026-04-24 14:59 | 44.05993 | 15.85847 | 24073 ft | 492 kts | 174° |
| 2026-04-24 14:59 | 44.02589 | 15.86149 | 23418 ft | 488 kts | 174° |
| 2026-04-24 14:59 | 43.99211 | 15.86448 | 22630 ft | 483 kts | 174° |
| 2026-04-24 14:59 | 43.95874 | 15.86741 | 21829 ft | 478 kts | 174° |
| 2026-04-24 15:00 | 43.92573 | 15.87031 | 21040 ft | 473 kts | 174° |
| 2026-04-24 15:00 | 43.89300 | 15.87321 | 20270 ft | 469 kts | 174° |
| 2026-04-24 15:00 | 43.86059 | 15.87609 | 19506 ft | 464 kts | 174° |
| 2026-04-24 15:00 | 43.82850 | 15.87893 | 18757 ft | 460 kts | 174° |
| 2026-04-24 15:01 | 43.79669 | 15.88172 | 17993 ft | 455 kts | 174° |
| 2026-04-24 15:01 | 43.76524 | 15.88451 | 17215 ft | 450 kts | 174° |
| 2026-04-24 15:01 | 43.73412 | 15.88722 | 16463 ft | 445 kts | 174° |
| 2026-04-24 15:01 | 43.70346 | 15.88988 | 15725 ft | 440 kts | 174° |
| 2026-04-24 15:02 | 43.67312 | 15.89254 | 15008 ft | 434 kts | 175° |
| 2026-04-24 15:02 | 43.64312 | 15.89514 | 14311 ft | 429 kts | 175° |
| 2026-04-24 15:02 | 43.61345 | 15.89771 | 13576 ft | 425 kts | 175° |
| 2026-04-24 15:02 | 43.58406 | 15.90028 | 12791 ft | 421 kts | 175° |
| 2026-04-24 15:03 | 43.56471 | 15.90198 | 12288 ft | 418 kts | 175° |
| 2026-04-24 15:03 | 43.52651 | 15.90531 | 11302 ft | 412 kts | 175° |
| 2026-04-24 15:03 | 43.49841 | 15.90772 | 10727 ft | 395 kts | 176° |
| 2026-04-24 15:03 | 43.47183 | 15.91000 | 10434 ft | 370 kts | 175° |
| 2026-04-24 15:04 | 43.44699 | 15.91216 | 10253 ft | 345 kts | 175° |
| 2026-04-24 15:04 | 43.42379 | 15.91421 | 10099 ft | 322 kts | 176° |
| 2026-04-24 15:04 | 43.40204 | 15.91613 | 9926 ft | 305 kts | 176° |
| 2026-04-24 15:04 | 43.38108 | 15.91795 | 9492 ft | 300 kts | 175° |
| 2026-04-24 15:05 | 43.36033 | 15.91975 | 9057 ft | 299 kts | 175° |
| 2026-04-24 15:05 | 43.33984 | 15.92349 | 8624 ft | 296 kts | 161° |
| 2026-04-24 15:05 | 43.32190 | 15.93625 | 8208 ft | 289 kts | 139° |
| 2026-04-24 15:05 | 43.31264 | 15.94917 | 7925 ft | 285 kts | 124° |
| 2026-04-24 15:06 | 43.30376 | 15.97299 | 7528 ft | 278 kts | 104° |
| 2026-04-24 15:06 | 43.30154 | 15.99893 | 7157 ft | 271 kts | 83° |
| 2026-04-24 15:06 | 43.30506 | 16.02391 | 6851 ft | 263 kts | 72° |
| 2026-04-24 15:06 | 43.30994 | 16.04787 | 6532 ft | 259 kts | 71° |
| 2026-04-24 15:07 | 43.31481 | 16.07165 | 6101 ft | 259 kts | 72° |
| 2026-04-24 15:07 | 43.31947 | 16.09545 | 5697 ft | 258 kts | 71° |
| 2026-04-24 15:07 | 43.32405 | 16.11924 | 5289 ft | 258 kts | 72° |
| 2026-04-24 15:07 | 43.32866 | 16.14317 | 4846 ft | 260 kts | 72° |
| 2026-04-24 15:08 | 43.33336 | 16.16716 | 4395 ft | 261 kts | 71° |
| 2026-04-24 15:08 | 43.33798 | 16.19106 | 4143 ft | 255 kts | 71° |
| 2026-04-24 15:08 | 43.34362 | 16.21337 | 3979 ft | 239 kts | 57° |
| 2026-04-24 15:08 | 43.35371 | 16.23003 | 3909 ft | 218 kts | 37° |
| 2026-04-24 15:09 | 43.36509 | 16.24331 | 3735 ft | 213 kts | 35° |
| 2026-04-24 15:09 | 43.37628 | 16.25629 | 3537 ft | 214 kts | 35° |
| 2026-04-24 15:09 | 43.38766 | 16.26974 | 3348 ft | 216 kts | 37° |
| 2026-04-24 15:09 | 43.39869 | 16.28300 | 3182 ft | 204 kts | 36° |
| 2026-04-24 15:10 | 43.40907 | 16.29556 | 3025 ft | 193 kts | 35° |
| 2026-04-24 15:10 | 43.41873 | 16.30732 | 2950 ft | 177 kts | 34° |
| 2026-04-24 15:10 | 43.42789 | 16.31844 | 2955 ft | 176 kts | 36° |
| 2026-04-24 15:10 | 43.43710 | 16.32961 | 2979 ft | 175 kts | 36° |
| 2026-04-24 15:11 | 43.44632 | 16.34075 | 2980 ft | 178 kts | 33° |
| 2026-04-24 15:11 | 43.45558 | 16.35220 | 2852 ft | 178 kts | 37° |
| 2026-04-24 15:11 | 43.46464 | 16.36319 | 2636 ft | 168 kts | 38° |
| 2026-04-24 15:11 | 43.47301 | 16.37339 | 2373 ft | 154 kts | 37° |
| 2026-04-24 15:12 | 43.48088 | 16.38293 | 2100 ft | 147 kts | 33° |
| 2026-04-24 15:12 | 43.49901 | 16.39103 | 1619 ft | 140 kts | 6° |
| 2026-04-24 15:12 | 43.50861 | 16.39381 | 1486 ft | 141 kts | 7° |
| 2026-04-24 15:13 | 43.51800 | 16.39627 | 1373 ft | 134 kts | 6° |
| 2026-04-24 15:13 | 43.52740 | 16.39770 | 1239 ft | 137 kts | 348° |
| 2026-04-24 15:13 | 43.53575 | 16.39269 | 1214 ft | 133 kts | 317° |
| 2026-04-24 15:13 | 43.54261 | 16.38405 | 1238 ft | 138 kts | 314° |
| 2026-04-24 15:14 | 43.54958 | 16.37471 | 1207 ft | 140 kts | 308° |
| 2026-04-24 15:14 | 43.55377 | 16.36260 | 1041 ft | 143 kts | 289° |
| 2026-04-24 15:14 | 43.55651 | 16.34939 | 834 ft | 143 kts | 286° |
| 2026-04-24 15:14 | 43.55728 | 16.33619 | 641 ft | 137 kts | 263° |
| 2026-04-24 15:15 | 43.55322 | 16.32441 | 386 ft | 137 kts | 245° |
| 2026-04-24 15:15 | 43.54764 | 16.31373 | 164 ft | 137 kts | 242° |
| 2026-04-24 15:15 | 43.54210 | 16.30359 | 66 ft | 120 kts | 232° |
| 2026-04-24 15:15 | 43.53890 | 16.29785 | 80 ft | 34 kts | 232° |
| 2026-04-24 15:16 | 43.53765 | 16.29561 | 84 ft | 20 kts | 233° |
| 2026-04-24 15:16 | 43.53709 | 16.29509 | 86 ft | 8 kts | 135° |
| 2026-04-24 15:16 | 43.53691 | 16.29561 | 80 ft | 4 kts | 126° |
| 2026-04-24 15:16 | 43.53682 | 16.29576 | 68 ft | 0 kts | 124° |
| 2026-04-24 15:17 | 43.53674 | 16.29613 | 67 ft | 7 kts | 89° |
| 2026-04-24 15:17 | 43.53703 | 16.29693 | 65 ft | 12 kts | 51° |
| 2026-04-24 15:17 | 43.53707 | 16.29775 | 72 ft | 4 kts | 116° |
| 2026-04-24 15:17 | 43.53705 | 16.29781 | 70 ft | 2 kts | 115° |
| 2026-04-24 15:18 | 43.53698 | 16.29802 | 68 ft | 0 kts | 115° |
| 2026-04-24 15:18 | 43.53696 | 16.29806 | 69 ft | 2 kts | 114° |
| 2026-04-24 15:18 | 43.53695 | 16.29809 | 70 ft | 0 kts | 115° |